Time;durP1;ratioP1;P1;durP2;ratioP2;P2;SDS_P1;SDS_P2;PMS_P1;PMS_P2;Temp;Humidity;BMP_temperature;BMP_pressure;BME280_temperature;BME280_humidity;BME280_pressure;Samples;Min_cycle;Max_cycle;Signal;HPM_P1;HPM_P2
2022/04/14 00:02:17;;;;;;;;;9.00;8.00;;;;;16.82;63.93;101659.53;5056099;28;45453;-65
2022/04/14 00:04:43;;;;;;;;;11.00;10.25;;;;;16.75;63.95;101640.97;5043702;28;45368;-65
2022/04/14 00:07:08;;;;;;;;;12.50;10.50;;;;;16.75;64.26;101638.28;5059566;28;45552;-66
2022/04/14 00:09:35;;;;;;;;;13.50;10.50;;;;;16.78;64.09;101646.25;5062505;28;45280;-65
2022/04/14 00:12:01;;;;;;;;;13.50;11.25;;;;;16.75;64.22;101639.16;5087027;27;45484;-66
2022/04/14 00:14:26;;;;;;;;;11.25;10.00;;;;;16.76;64.17;101649.00;5056566;28;46204;-66
2022/04/14 00:16:52;;;;;;;;;12.50;11.50;;;;;16.75;64.21;101638.28;5062308;28;45289;-65
2022/04/14 00:19:17;;;;;;;;;11.50;11.50;;;;;16.78;63.92;101649.81;5061973;28;45248;-66
2022/04/14 00:21:42;;;;;;;;;12.25;9.50;;;;;16.76;64.19;101651.69;5061444;28;45581;-66
2022/04/14 00:24:08;;;;;;;;;15.00;14.25;;;;;16.75;63.99;101647.25;5091283;27;47237;-65
2022/04/14 00:26:33;;;;;;;;;13.75;13.75;;;;;16.75;64.12;101643.69;5061025;28;45327;-66
2022/04/14 00:28:59;;;;;;;;;12.75;11.00;;;;;16.73;63.97;101643.75;5062225;28;45400;-65
2022/04/14 00:31:24;;;;;;;;;12.00;12.00;;;;;16.73;64.02;101646.44;5074388;28;45314;-65
2022/04/14 00:33:49;;;;;;;;;15.00;12.00;;;;;16.72;63.85;101649.19;5044793;28;45497;-66
2022/04/14 00:36:15;;;;;;;;;13.00;13.00;;;;;16.70;63.90;101640.31;5060131;28;45363;-65
2022/04/14 00:38:41;;;;;;;;;17.00;16.00;;;;;16.67;64.09;101647.59;5077674;28;45295;-66
2022/04/14 00:41:06;;;;;;;;;13.50;13.50;;;;;16.65;64.35;101641.38;5060430;28;45247;-66
2022/04/14 00:43:33;;;;;;;;;17.50;14.50;;;;;16.67;64.40;101641.31;5060719;28;45557;-65
2022/04/14 00:46:00;;;;;;;;;15.25;14.25;;;;;16.67;64.23;101642.22;5061403;28;45255;-65
2022/04/14 00:48:26;;;;;;;;;15.50;13.50;;;;;16.63;64.30;101632.47;5061775;28;45245;-66
2022/04/14 00:50:51;;;;;;;;;14.50;13.25;;;;;16.66;64.22;101636.88;5053510;28;45509;-65
2022/04/14 00:53:17;;;;;;;;;16.00;15.00;;;;;16.62;64.38;101638.84;5060137;28;45587;-65
2022/04/14 00:55:42;;;;;;;;;15.50;14.25;;;;;16.60;63.96;101634.44;5051468;28;45337;-65
2022/04/14 00:58:08;;;;;;;;;15.50;15.50;;;;;16.61;64.29;101642.47;5061760;28;45369;-65
2022/04/14 01:00:33;;;;;;;;;11.75;11.75;;;;;16.60;64.42;101646.09;5060330;28;45366;-65
2022/04/14 01:03:00;;;;;;;;;14.75;14.75;;;;;16.61;64.44;101649.69;5049676;28;45452;-65
2022/04/14 01:05:26;;;;;;;;;16.50;15.75;;;;;16.55;64.60;101645.41;5060928;28;45349;-65
2022/04/14 01:07:52;;;;;;;;;15.00;15.00;;;;;16.46;64.42;101638.59;5061162;28;45372;-65
2022/04/14 01:10:18;;;;;;;;;15.75;15.25;;;;;16.47;64.68;101639.47;5061285;28;45274;-65
2022/04/14 01:12:43;;;;;;;;;15.00;15.00;;;;;16.45;64.85;101647.63;5051130;28;45909;-66
2022/04/14 01:15:14;;;;;;;;;16.25;16.25;;;;;16.42;64.84;101642.38;5060572;28;45300;-65
2022/04/14 01:17:40;;;;;;;;;16.50;16.50;;;;;16.43;64.88;101649.50;5060954;28;45386;-66
2022/04/14 01:20:08;;;;;;;;;15.75;14.50;;;;;16.40;64.74;101646.06;5052540;28;45375;-65
2022/04/14 01:22:42;;;;;;;;;14.75;14.75;;;;;16.36;65.03;101644.47;5059862;28;45502;-66
2022/04/14 01:25:08;;;;;;;;;17.00;15.00;;;;;16.36;65.07;101644.47;5061264;28;45313;-65
2022/04/14 01:27:33;;;;;;;;;18.75;16.00;;;;;16.30;65.01;101643.78;5064552;28;45352;-66
2022/04/14 01:29:59;;;;;;;;;18.25;15.50;;;;;16.33;64.96;101642.75;5051440;28;45215;-65
2022/04/14 01:32:24;;;;;;;;;17.00;17.00;;;;;16.36;65.01;101648.03;5053768;28;45229;-66
2022/04/14 01:34:50;;;;;;;;;16.00;14.00;;;;;16.35;64.92;101648.09;5047694;28;45383;-66
2022/04/14 01:37:15;;;;;;;;;14.50;13.25;;;;;16.37;65.07;101662.38;5060358;28;45504;-66
2022/04/14 01:39:41;;;;;;;;;16.50;15.00;;;;;16.35;65.19;101659.72;5061099;28;45223;-65
2022/04/14 01:42:07;;;;;;;;;15.75;15.00;;;;;16.27;65.04;101652.00;5054687;28;45351;-65
2022/04/14 01:44:33;;;;;;;;;14.25;13.50;;;;;16.28;65.13;101661.81;5058770;28;45499;-66
2022/04/14 01:46:59;;;;;;;;;17.75;13.50;;;;;16.30;65.20;101662.66;5059609;28;45337;-66
2022/04/14 01:49:24;;;;;;;;;16.50;15.25;;;;;16.22;65.25;101650.41;5059890;28;45333;-65
2022/04/14 01:51:49;;;;;;;;;19.25;19.00;;;;;16.23;65.42;101647.66;5056776;28;45529;-65
2022/04/14 01:54:16;;;;;;;;;17.75;15.00;;;;;16.24;65.27;101649.41;5060737;28;45303;-66
2022/04/14 01:56:41;;;;;;;;;16.00;15.00;;;;;16.22;65.31;101648.63;5060631;28;45276;-65
2022/04/14 01:59:07;;;;;;;;;20.25;18.25;;;;;16.24;65.43;101645.88;5056909;28;45343;-65
2022/04/14 02:01:33;;;;;;;;;16.75;13.00;;;;;16.21;65.32;101644.16;5054855;28;45562;-65
2022/04/14 02:03:58;;;;;;;;;14.75;14.75;;;;;16.18;65.55;101643.41;5060583;28;45252;-65
2022/04/14 02:06:24;;;;;;;;;16.50;16.00;;;;;16.19;65.27;101645.16;5059049;28;45327;-65
2022/04/14 02:08:50;;;;;;;;;14.75;14.75;;;;;16.19;65.40;101645.16;5060736;28;45453;-65
2022/04/14 02:11:16;;;;;;;;;17.00;16.00;;;;;16.19;65.62;101643.34;5061208;28;48435;-65
2022/04/14 02:13:42;;;;;;;;;14.25;13.75;;;;;16.20;65.33;101642.38;5060395;28;45368;-65
2022/04/14 02:16:08;;;;;;;;;17.00;15.75;;;;;16.18;65.42;101641.59;5060505;28;45369;-66
2022/04/14 02:18:34;;;;;;;;;14.25;13.25;;;;;16.19;65.73;101645.16;5060374;28;45295;-65
2022/04/14 02:20:59;;;;;;;;;19.25;16.25;;;;;16.19;65.31;101642.44;5076105;28;48007;-66
2022/04/14 02:23:25;;;;;;;;;15.00;15.00;;;;;16.17;65.72;101637.16;5072065;27;45291;-65
2022/04/14 02:25:51;;;;;;;;;18.50;17.75;;;;;16.19;65.53;101635.28;5058241;28;45311;-65
2022/04/14 02:28:16;;;;;;;;;15.75;14.25;;;;;16.21;65.59;101636.06;5056406;28;45497;-65
2022/04/14 02:30:42;;;;;;;;;19.75;18.25;;;;;16.20;65.36;101637.00;5046898;28;46337;-66
2022/04/14 02:33:07;;;;;;;;;15.50;14.75;;;;;16.15;65.46;101628.25;5052305;28;45246;-66
2022/04/14 02:35:32;;;;;;;;;16.00;16.00;;;;;16.18;65.55;101632.63;5052968;28;45597;-66
2022/04/14 02:37:58;;;;;;;;;15.50;15.25;;;;;16.20;65.50;101631.63;5059943;28;45512;-65
2022/04/14 02:40:24;;;;;;;;;19.50;18.00;;;;;16.20;65.53;101642.38;5056103;28;45880;-66
2022/04/14 02:42:53;;;;;;;;;18.00;16.25;;;;;16.13;65.50;101637.34;5057520;28;45540;-65
2022/04/14 02:45:19;;;;;;;;;14.75;14.25;;;;;16.10;65.52;101646.41;5059669;28;45461;-66
2022/04/14 02:47:44;;;;;;;;;17.00;16.25;;;;;16.06;65.80;101642.97;5059131;28;45377;-66
2022/04/14 02:50:10;;;;;;;;;17.75;15.75;;;;;16.05;65.83;101643.03;5058262;28;46325;-65
2022/04/14 02:52:35;;;;;;;;;15.50;13.00;;;;;15.97;65.67;101642.47;5051746;28;45244;-66
2022/04/14 02:55:00;;;;;;;;;18.25;17.00;;;;;15.97;65.90;101645.16;5043390;28;45365;-65
2022/04/14 02:57:26;;;;;;;;;16.50;14.25;;;;;15.97;66.05;101650.53;5058716;28;45367;-65
2022/04/14 02:59:51;;;;;;;;;15.25;14.25;;;;;15.92;65.98;101651.63;5059622;28;45332;-65
2022/04/14 03:02:16;;;;;;;;;18.50;14.75;;;;;15.93;65.97;101647.09;5057875;28;45318;-65
2022/04/14 03:04:42;;;;;;;;;17.00;15.75;;;;;15.91;66.04;101646.28;5059683;28;45391;-65
2022/04/14 03:07:07;;;;;;;;;16.25;13.25;;;;;15.90;65.89;101640.03;5058121;28;45181;-65
2022/04/14 03:09:33;;;;;;;;;15.00;15.00;;;;;15.85;66.10;101642.00;5059472;28;46032;-65
2022/04/14 03:11:58;;;;;;;;;13.75;13.75;;;;;15.85;65.90;101649.22;5058813;28;45189;-66
2022/04/14 03:14:24;;;;;;;;;15.50;14.00;;;;;15.76;66.01;101633.47;5059679;28;45961;-66
2022/04/14 03:16:49;;;;;;;;;16.50;15.25;;;;;15.80;66.19;101644.00;5059344;28;45381;-66
2022/04/14 03:19:14;;;;;;;;;16.00;16.00;;;;;15.74;66.12;101633.47;5056007;28;45429;-66
2022/04/14 03:21:40;;;;;;;;;15.50;15.00;;;;;15.71;66.38;101634.47;5055836;28;45472;-66
2022/04/14 03:24:05;;;;;;;;;15.25;14.00;;;;;15.71;66.13;101644.38;5059547;28;45220;-65
2022/04/14 03:26:31;;;;;;;;;12.50;12.50;;;;;15.74;66.33;101652.31;5074636;28;45316;-66
2022/04/14 03:28:56;;;;;;;;;15.25;14.25;;;;;15.72;66.22;101654.22;5058649;28;46306;-66
2022/04/14 03:31:21;;;;;;;;;14.75;13.50;;;;;15.78;66.12;101655.81;5057405;28;45470;-66
2022/04/14 03:33:47;;;;;;;;;15.50;14.50;;;;;15.76;66.35;101655.84;5074575;28;45394;-66
2022/04/14 03:36:12;;;;;;;;;17.00;16.50;;;;;15.78;66.23;101656.66;5058798;28;45553;-66
2022/04/14 03:38:37;;;;;;;;;14.50;14.25;;;;;15.75;66.04;101667.53;5058655;28;45457;-65
2022/04/14 03:41:07;;;;;;;;;17.00;14.50;;;;;15.75;66.21;101659.44;5057904;28;45439;-66
2022/04/14 03:43:34;;;;;;;;;14.50;13.75;;;;;15.79;66.15;101654.88;5059127;28;45302;-66
2022/04/14 03:45:59;;;;;;;;;14.00;12.75;;;;;15.80;65.94;101652.09;5045360;28;45533;-65
2022/04/14 03:48:25;;;;;;;;;15.00;14.00;;;;;15.78;66.22;101659.34;5059080;28;45603;-66
2022/04/14 03:50:51;;;;;;;;;18.25;15.25;;;;;15.74;66.10;101655.88;5056748;28;45257;-65
2022/04/14 03:53:17;;;;;;;;;15.00;13.75;;;;;15.76;66.10;101666.63;5059236;28;45992;-65
2022/04/14 03:55:43;;;;;;;;;15.25;14.25;;;;;15.80;65.72;101673.63;5058901;28;45438;-65
2022/04/14 03:58:08;;;;;;;;;13.00;12.25;;;;;15.81;65.94;101664.63;5050500;28;45306;-66
2022/04/14 04:00:33;;;;;;;;;15.75;14.25;;;;;15.81;66.13;101671.84;5056300;28;45615;-66
2022/04/14 04:02:59;;;;;;;;;12.50;11.50;;;;;15.81;66.02;101680.78;5062703;28;45425;-66
2022/04/14 04:05:24;;;;;;;;;16.50;15.00;;;;;15.77;65.98;101679.16;5062199;28;45461;-66
2022/04/14 04:07:49;;;;;;;;;14.50;14.50;;;;;15.77;65.86;101672.88;5060968;28;47974;-65
2022/04/14 04:10:16;;;;;;;;;15.00;14.50;;;;;15.74;66.08;101674.72;5048992;28;45378;-65
2022/04/14 04:12:41;;;;;;;;;14.00;12.00;;;;;15.77;65.84;101673.78;5062569;28;45283;-65
2022/04/14 04:15:07;;;;;;;;;14.25;14.00;;;;;15.79;65.94;101684.50;5062046;28;45169;-66
2022/04/14 04:17:33;;;;;;;;;15.50;15.50;;;;;15.81;65.95;101677.22;5062412;28;45357;-65
2022/04/14 04:19:58;;;;;;;;;16.75;14.75;;;;;15.81;65.87;101677.22;5061127;28;45236;-65
2022/04/14 04:22:23;;;;;;;;;17.25;14.75;;;;;15.77;65.78;101670.19;5061963;28;45283;-65
2022/04/14 04:24:49;;;;;;;;;16.00;14.75;;;;;15.73;65.62;101655.94;5058773;28;45397;-65
2022/04/14 04:27:14;;;;;;;;;15.50;15.25;;;;;15.73;65.89;101658.63;5060944;28;45457;-65
2022/04/14 04:29:39;;;;;;;;;16.00;16.00;;;;;15.71;66.05;101653.31;5060268;28;45187;-66
2022/04/14 04:32:06;;;;;;;;;15.25;15.25;;;;;15.71;66.08;101661.38;5061982;28;45398;-65
2022/04/14 04:34:31;;;;;;;;;16.50;16.00;;;;;15.67;66.02;101657.06;5048110;28;45362;-66
2022/04/14 04:36:56;;;;;;;;;14.75;13.75;;;;;15.68;66.03;101657.94;5061771;28;45988;-65
2022/04/14 04:39:22;;;;;;;;;18.25;17.00;;;;;15.66;66.23;101658.00;5062056;28;45381;-65
2022/04/14 04:41:47;;;;;;;;;18.75;17.50;;;;;15.71;65.97;101672.16;5062071;28;45395;-65
2022/04/14 04:44:12;;;;;;;;;16.00;16.00;;;;;15.71;66.15;101676.66;5061491;28;45378;-65
2022/04/14 04:46:38;;;;;;;;;19.50;18.25;;;;;15.68;65.94;101682.16;5061702;28;46225;-65
2022/04/14 04:49:03;;;;;;;;;22.50;20.00;;;;;15.71;65.62;101693.69;5060740;28;45345;-65
2022/04/14 04:51:28;;;;;;;;;15.75;15.25;;;;;15.63;65.58;101684.16;5061537;28;45215;-65
2022/04/14 04:53:54;;;;;;;;;17.00;15.75;;;;;15.67;65.89;101693.84;5060287;28;45667;-66
2022/04/14 04:56:19;;;;;;;;;16.00;16.00;;;;;15.66;66.03;101697.50;5052392;28;45450;-65
2022/04/14 04:58:45;;;;;;;;;21.50;20.00;;;;;15.63;66.04;101706.56;5058341;28;45509;-65
2022/04/14 05:01:11;;;;;;;;;18.00;18.00;;;;;15.62;65.94;101703.91;5060704;28;45393;-65
2022/04/14 05:03:36;;;;;;;;;18.00;15.25;;;;;15.61;65.81;101700.34;5060949;28;45345;-66
2022/04/14 05:06:02;;;;;;;;;19.00;16.75;;;;;15.59;65.97;101704.94;5060865;28;45424;-65
2022/04/14 05:08:27;;;;;;;;;19.75;19.00;;;;;15.61;66.01;101716.50;5049754;28;45366;-65
2022/04/14 05:10:53;;;;;;;;;17.25;16.00;;;;;15.63;65.92;101713.75;5059536;28;45240;-65
2022/04/14 05:13:18;;;;;;;;;18.00;17.50;;;;;15.63;65.59;101705.69;5060617;28;45398;-65
2022/04/14 05:15:43;;;;;;;;;18.50;16.50;;;;;15.57;65.99;101688.84;5061078;28;46014;-65
2022/04/14 05:18:09;;;;;;;;;17.50;16.50;;;;;15.62;65.69;101702.13;5056394;28;45845;-65
2022/04/14 05:20:35;;;;;;;;;15.25;15.25;;;;;15.60;66.00;101701.28;5052484;28;45241;-65
2022/04/14 05:23:03;;;;;;;;;19.75;16.75;;;;;15.61;65.76;101704.88;5060833;28;45203;-65
2022/04/14 05:25:29;;;;;;;;;18.00;17.00;;;;;15.61;65.94;101703.06;5060339;28;46168;-65
2022/04/14 05:27:55;;;;;;;;;23.25;20.75;;;;;15.57;66.13;101705.00;5059281;28;45584;-66
2022/04/14 05:30:20;;;;;;;;;16.75;14.75;;;;;15.56;65.90;101708.59;5071590;27;45471;-65
2022/04/14 05:32:46;;;;;;;;;20.00;18.25;;;;;15.61;66.01;101715.66;5050777;28;45394;-66
2022/04/14 05:35:11;;;;;;;;;20.50;20.50;;;;;15.61;65.71;101719.19;5060355;28;45404;-65
2022/04/14 05:37:37;;;;;;;;;20.75;17.25;;;;;15.54;65.94;101707.78;5059055;28;45386;-66
2022/04/14 05:40:06;;;;;;;;;19.75;18.75;;;;;15.59;65.89;101722.91;5060313;28;46667;-65
2022/04/14 05:42:32;;;;;;;;;20.75;17.75;;;;;15.56;65.79;101723.88;5058866;28;45486;-75
2022/04/14 05:45:06;;;;;;;;;21.00;20.00;;;;;15.54;66.03;101729.31;5055039;28;45473;-73
2022/04/14 05:47:33;;;;;;;;;25.50;23.25;;;;;15.53;66.18;101732.06;5075851;27;45931;-73
2022/04/14 05:50:02;;;;;;;;;9.00;9.00;;;;;15.50;66.15;101737.56;5050265;28;45524;-73
2022/04/14 05:52:28;;;;;;;;;24.50;23.50;;;;;15.48;66.13;101743.00;5071415;28;45313;-73
2022/04/14 05:54:54;;;;;;;;;24.25;22.75;;;;;15.48;66.43;101736.75;5045465;28;46579;-73
2022/04/14 05:57:22;;;;;;;;;18.75;16.75;;;;;15.43;66.41;101734.22;5053224;28;45248;-72
2022/04/14 05:59:47;;;;;;;;;22.50;20.25;;;;;15.40;66.60;101734.31;5057462;28;45427;-72
2022/04/14 06:02:13;;;;;;;;;24.00;22.25;;;;;15.39;66.40;101732.59;5054075;28;45337;-73
2022/04/14 06:04:38;;;;;;;;;26.25;24.00;;;;;15.36;66.81;101743.44;5060725;28;46119;-73
2022/04/14 06:07:04;;;;;;;;;23.50;21.75;;;;;15.30;66.71;101730.22;5056489;28;45305;-73
2022/04/14 06:09:29;;;;;;;;;23.00;22.75;;;;;15.29;66.71;101740.09;5054228;28;45381;-74
2022/04/14 06:11:55;;;;;;;;;25.50;21.25;;;;;15.31;67.04;101743.63;5060144;28;45336;-74
2022/04/14 06:14:20;;;;;;;;;23.00;21.00;;;;;15.28;66.84;101740.16;5056241;28;47308;-75
2022/04/14 06:16:45;;;;;;;;;27.25;24.50;;;;;15.25;67.07;101726.81;5057114;28;45241;-75
2022/04/14 06:19:11;;;;;;;;;29.25;25.50;;;;;15.24;67.28;101734.03;5065180;28;45362;-75
2022/04/14 06:21:36;;;;;;;;;22.75;21.50;;;;;15.18;67.41;101712.72;5058926;28;45406;-75
2022/04/14 06:24:01;;;;;;;;;23.50;21.25;;;;;15.28;67.32;101740.16;5060058;28;45649;-75
2022/04/14 06:26:27;;;;;;;;;24.00;22.50;;;;;15.23;67.40;101732.25;5053324;28;45216;-75
2022/04/14 06:28:52;;;;;;;;;25.50;22.75;;;;;15.20;67.25;101732.34;5047432;28;45299;-74
2022/04/14 06:31:18;;;;;;;;;24.25;22.00;;;;;15.16;67.50;101728.03;5056837;28;45236;-73
2022/04/14 06:33:44;;;;;;;;;21.50;21.50;;;;;15.18;67.39;101732.44;5056270;28;46608;-74
2022/04/14 06:36:10;;;;;;;;;24.25;24.25;;;;;15.33;67.45;101755.19;5055089;28;47083;-67
2022/04/14 06:38:36;;;;;;;;;23.00;22.50;;;;;15.37;67.35;101764.06;5064843;28;45528;-67
2022/04/14 06:41:02;;;;;;;;;23.50;21.50;;;;;15.39;67.34;101770.25;5056706;28;45856;-66
2022/04/14 06:43:28;;;;;;;;;29.75;26.25;;;;;15.41;67.61;101773.75;5048203;28;46356;-66
2022/04/14 06:45:54;;;;;;;;;28.50;28.50;;;;;15.35;67.97;101761.41;5054886;28;45404;-66
2022/04/14 06:48:19;;;;;;;;;26.75;25.25;;;;;15.45;67.87;101774.53;5038071;28;45512;-67
2022/04/14 06:50:45;;;;;;;;;31.50;28.25;;;;;15.46;67.98;101765.53;5048158;28;46425;-67
2022/04/14 06:53:10;;;;;;;;;34.50;31.50;;;;;15.52;68.00;101773.38;5057741;28;45425;-67
2022/04/14 06:55:37;;;;;;;;;29.00;28.50;;;;;15.55;67.68;101771.44;5056111;28;45381;-67
2022/04/14 06:58:03;;;;;;;;;32.75;27.25;;;;;15.57;67.43;101771.41;5066445;28;45586;-67
2022/04/14 07:00:30;;;;;;;;;35.50;30.00;;;;;15.62;67.91;101776.59;5056287;27;45449;-67
2022/04/14 07:02:56;;;;;;;;;28.50;27.25;;;;;15.61;67.86;101766.78;5066827;28;47324;-67
2022/04/14 07:05:23;;;;;;;;;31.75;29.50;;;;;15.69;67.61;101781.69;5060664;28;45438;-67
2022/04/14 07:07:49;;;;;;;;;34.25;31.25;;;;;15.69;68.16;101776.31;5066472;27;45520;-67
2022/04/14 07:10:15;;;;;;;;;35.25;33.00;;;;;15.75;67.93;101780.56;5049005;28;45351;-67
2022/04/14 07:12:41;;;;;;;;;35.25;31.75;;;;;15.74;68.09;101781.53;5049155;28;45973;-67
2022/04/14 07:15:08;;;;;;;;;32.25;31.25;;;;;15.80;67.42;101784.00;5058653;28;45517;-67
2022/04/14 07:17:34;;;;;;;;;35.00;32.75;;;;;15.81;67.57;101780.38;5058330;28;45533;-67
2022/04/14 07:20:03;;;;;;;;;34.75;32.00;;;;;15.84;67.53;101782.97;5054817;28;45517;-67
2022/04/14 07:22:40;;;;;;;;;35.25;30.25;;;;;15.68;67.51;101769.16;5055442;28;47203;-67
2022/04/14 07:25:09;;;;;;;;;38.00;33.00;;;;;15.87;67.71;101784.66;5061199;28;45437;-67
2022/04/14 07:27:34;;;;;;;;;33.00;31.00;;;;;15.57;67.62;101739.97;5044915;28;45659;-67
2022/04/14 07:30:00;;;;;;;;;40.75;34.25;;;;;15.56;67.23;101731.94;5057373;28;45414;-67
2022/04/14 07:32:45;;;;;;;;;35.00;30.75;;;;;15.62;67.67;101745.19;5057943;28;46006;-67
2022/04/14 07:35:12;;;;;;;;;31.00;28.75;;;;;15.79;67.36;101771.50;5056562;28;45321;-67
2022/04/14 07:37:38;;;;;;;;;30.00;30.00;;;;;15.82;67.30;101770.50;5060650;28;45490;-67
2022/04/14 07:40:05;;;;;;;;;36.00;32.50;;;;;15.85;67.15;101765.84;5061676;28;45379;-67
2022/04/14 07:42:38;;;;;;;;;35.75;32.75;;;;;15.90;67.12;101781.84;5061132;28;46244;-67
2022/04/14 07:45:06;;;;;;;;;36.25;31.25;;;;;16.07;66.66;101802.75;5061343;28;45662;-67
2022/04/14 07:47:31;;;;;;;;;35.00;30.75;;;;;15.85;66.60;101754.22;5061143;28;45386;-67
2022/04/14 07:49:57;;;;;;;;;34.25;30.50;;;;;15.97;66.72;101769.94;5030923;28;45500;-67
2022/04/14 07:52:23;;;;;;;;;37.00;33.25;;;;;16.00;66.92;101772.47;5060607;28;45325;-67
2022/04/14 07:54:50;;;;;;;;;41.75;34.00;;;;;15.98;66.57;101768.09;5061579;28;45591;-67
2022/04/14 07:57:16;;;;;;;;;36.50;32.00;;;;;16.17;66.39;101800.56;5058486;28;45483;-67
2022/04/14 07:59:41;;;;;;;;;34.25;31.00;;;;;15.83;66.03;101756.09;5060890;28;45888;-67
2022/04/14 08:02:10;;;;;;;;;34.50;31.25;;;;;16.04;66.13;101797.50;5060621;28;45481;-67
2022/04/14 08:04:38;;;;;;;;;35.25;31.75;;;;;15.73;66.19;101731.31;5061317;28;45324;-67
2022/04/14 08:07:04;;;;;;;;;46.00;36.00;;;;;16.09;65.68;101799.06;5060945;28;45231;-67
2022/04/14 08:09:30;;;;;;;;;38.25;33.75;;;;;15.95;66.32;101776.28;5060988;28;45459;-67
2022/04/14 08:11:55;;;;;;;;;34.75;30.00;;;;;16.11;65.84;101785.53;5059636;28;46163;-67
2022/04/14 08:14:21;;;;;;;;;35.50;30.75;;;;;16.26;66.68;101802.91;5061272;28;45381;-67
2022/04/14 08:16:46;;;;;;;;;33.50;31.00;;;;;16.00;65.97;101752.75;5051492;28;45381;-67
2022/04/14 08:19:12;;;;;;;;;40.00;36.00;;;;;16.12;66.52;101763.03;5060134;28;45410;-67
2022/04/14 08:21:37;;;;;;;;;34.75;32.25;;;;;16.21;65.83;101769.91;5061197;28;46287;-68
2022/04/14 08:24:03;;;;;;;;;40.25;34.50;;;;;16.26;65.41;101773.28;5061028;28;45476;-67
2022/04/14 08:26:28;;;;;;;;;39.50;35.25;;;;;16.15;65.97;101751.28;5056366;28;45457;-67
2022/04/14 08:28:56;;;;;;;;;39.50;33.25;;;;;16.41;65.91;101796.03;5054787;28;45592;-67
2022/04/14 08:31:23;;;;;;;;;41.50;35.75;;;;;16.49;66.16;101804.69;5061392;28;46004;-67
2022/04/14 08:33:50;;;;;;;;;38.75;33.25;;;;;16.35;65.89;101772.91;5028922;28;45839;-67
2022/04/14 08:36:16;;;;;;;;;45.50;37.25;;;;;16.50;65.68;101790.28;5051956;28;45508;-67
2022/04/14 08:38:44;;;;;;;;;39.00;35.00;;;;;16.46;66.03;101777.88;5057241;28;45504;-65
2022/04/14 08:41:13;;;;;;;;;38.00;32.50;;;;;16.68;65.51;101805.69;5061058;28;46544;-71
2022/04/14 08:44:12;;;;;;;;;50.25;39.75;;;;;16.65;65.54;101797.72;5072323;28;45678;-71
2022/04/14 08:46:39;;;;;;;;;45.50;38.50;;;;;16.66;65.39;101785.13;5047636;28;45585;-66
2022/04/14 08:49:07;;;;;;;;;50.50;40.00;;;;;16.62;65.04;101768.22;5054233;28;45563;-65
2022/04/14 08:51:36;;;;;;;;;48.25;40.00;;;;;16.70;65.57;101762.50;5060526;28;47509;-65
2022/04/14 08:54:02;;;;;;;;;51.75;43.00;;;;;16.76;65.15;101764.94;5058086;28;45697;-67
2022/04/14 08:56:29;;;;;;;;;44.50;37.50;;;;;17.03;64.69;101810.59;5058072;28;45483;-66
2022/04/14 08:58:55;;;;;;;;;38.75;34.75;;;;;16.92;64.64;101792.16;5060882;28;45389;-67
2022/04/14 09:01:25;;;;;;;;;44.00;37.00;;;;;16.92;64.72;101786.75;5060818;28;45480;-67
2022/04/14 09:03:56;;;;;;;;;37.25;34.25;;;;;16.97;64.71;101783.88;5060528;28;45356;-67
2022/04/14 09:06:22;;;;;;;;;37.00;33.00;;;;;16.98;64.65;101780.25;5058811;28;45562;-67
2022/04/14 09:08:48;;;;;;;;;45.75;36.75;;;;;17.05;64.42;101781.72;5060670;28;45315;-67
2022/04/14 09:11:14;;;;;;;;;29.50;26.50;;;;;17.10;63.62;101781.53;5060588;28;46273;-67
2022/04/14 09:13:43;;;;;;;;;24.50;24.50;;;;;17.01;62.96;101767.50;5058216;28;45653;-67
2022/04/14 09:16:09;;;;;;;;;32.75;30.25;;;;;17.29;62.57;101809.47;5058425;28;45468;-67
2022/04/14 09:18:35;;;;;;;;;35.00;31.00;;;;;17.11;62.53;101784.16;5058332;28;45394;-67
2022/04/14 09:21:05;;;;;;;;;31.75;28.75;;;;;17.18;62.59;101787.47;5048630;28;46387;-67
2022/04/14 09:23:31;;;;;;;;;27.75;23.75;;;;;17.27;62.18;101807.78;5054662;28;45371;-67
2022/04/14 09:26:02;;;;;;;;;29.50;26.00;;;;;17.38;62.54;101810.91;5059584;28;45347;-67
2022/04/14 09:28:28;;;;;;;;;30.00;29.25;;;;;17.14;62.22;101769.66;5054745;28;45798;-67
2022/04/14 09:31:03;;;;;;;;;25.75;21.00;;;;;17.19;61.58;101768.53;5059776;28;45413;-67
2022/04/14 09:33:30;;;;;;;;;21.00;20.00;;;;;17.28;61.51;101785.25;5057073;28;45997;-67
2022/04/14 09:36:07;;;;;;;;;26.50;22.50;;;;;17.43;61.23;101799.91;5092461;27;45347;-67
2022/04/14 09:38:55;;;;;;;;;22.00;22.00;;;;;17.36;61.40;101783.97;5092531;27;45476;-67
2022/04/14 09:41:32;;;;;;;;;27.25;24.00;;;;;17.59;61.52;101815.34;5046242;28;46632;-67
2022/04/14 09:44:00;;;;;;;;;25.25;23.25;;;;;17.63;61.17;101810.69;5057437;28;45722;-67
2022/04/14 09:46:26;;;;;;;;;25.75;24.75;;;;;17.47;60.87;101780.78;5058146;28;45465;-67
2022/04/14 09:49:05;;;;;;;;;26.25;25.25;;;;;17.51;60.73;101778.84;5059788;28;45457;-67
2022/04/14 09:51:32;;;;;;;;;23.50;21.50;;;;;17.57;60.87;101776.75;5075080;28;46692;-67
2022/04/14 09:54:15;;;;;;;;;25.00;24.00;;;;;17.81;60.43;101800.88;5058985;28;45853;-67
2022/04/14 09:56:42;;;;;;;;;22.50;20.75;;;;;17.89;60.14;101806.84;5056053;28;45426;-67
2022/04/14 09:59:08;;;;;;;;;23.75;20.50;;;;;17.73;60.05;101776.03;5074018;28;45575;-67
2022/04/14 10:01:35;;;;;;;;;18.75;18.25;;;;;17.85;60.33;101788.09;5058752;28;47382;-67
2022/04/14 10:04:01;;;;;;;;;21.25;21.00;;;;;17.83;60.07;101780.06;5058070;28;45382;-67
2022/04/14 10:06:27;;;;;;;;;23.75;22.25;;;;;17.94;59.41;101787.69;5059579;28;45754;-66
2022/04/14 10:08:52;;;;;;;;;23.50;22.50;;;;;17.90;59.75;101778.00;5059847;28;45454;-67
2022/04/14 10:11:27;;;;;;;;;20.25;19.75;;;;;17.81;58.95;101754.06;5059277;28;47170;-67
2022/04/14 10:13:53;;;;;;;;;19.50;18.50;;;;;18.04;58.97;101789.03;5053132;28;45627;-67
2022/04/14 10:16:21;;;;;;;;;29.25;26.50;;;;;17.85;58.50;101753.00;5054999;28;45460;-67
2022/04/14 10:18:47;;;;;;;;;22.75;22.75;;;;;17.96;58.42;101765.06;5059632;28;45644;-67
2022/04/14 10:21:14;;;;;;;;;14.00;13.00;;;;;18.11;58.06;101779.69;5050963;28;45358;-67
2022/04/14 10:23:41;;;;;;;;;12.75;12.75;;;;;17.98;57.48;101758.72;5055272;28;45559;-67
2022/04/14 10:26:07;;;;;;;;;13.75;13.75;;;;;18.07;57.60;101760.97;5052353;28;45430;-68
2022/04/14 10:28:35;;;;;;;;;17.75;15.00;;;;;18.15;57.79;101767.75;5054649;28;45358;-67
2022/04/14 10:31:01;;;;;;;;;18.50;18.50;;;;;18.37;58.25;101796.44;5059409;28;46244;-67
2022/04/14 10:33:28;;;;;;;;;19.00;19.00;;;;;18.36;57.78;101775.81;5058756;28;45255;-67
2022/04/14 10:35:54;;;;;;;;;21.25;18.50;;;;;18.27;57.63;101758.19;5052649;28;45322;-67
2022/04/14 10:38:34;;;;;;;;;14.50;14.50;;;;;18.51;57.61;101788.56;5059651;28;45409;-67
2022/04/14 10:41:14;;;;;;;;;15.00;14.00;;;;;18.54;56.95;101778.53;5047551;28;46675;-67
2022/04/14 10:43:42;;;;;;;;;12.50;12.50;;;;;18.31;56.60;101740.88;5056682;28;45423;-66
2022/04/14 10:46:08;;;;;;;;;14.00;13.00;;;;;18.40;56.14;101744.94;5059972;28;45430;-66
2022/04/14 10:48:35;;;;;;;;;18.00;15.00;;;;;18.64;56.00;101783.44;5059274;28;45322;-66
2022/04/14 10:51:20;;;;;;;;;15.50;13.00;;;;;18.64;55.70;101774.41;5058882;28;45495;-66
2022/04/14 10:54:00;;;;;;;;;15.50;14.50;;;;;18.65;55.83;101771.66;5045811;28;45539;-66
2022/04/14 10:56:39;;;;;;;;;14.75;13.00;;;;;18.66;55.68;101776.13;5053962;28;45236;-66
2022/04/14 10:59:11;;;;;;;;;14.00;12.75;;;;;18.53;55.56;101750.63;5057558;28;45572;-66
2022/04/14 11:01:45;;;;;;;;;14.00;13.00;;;;;18.74;55.64;101772.13;5060787;28;47389;-66
2022/04/14 11:04:24;;;;;;;;;13.25;13.25;;;;;18.78;55.78;101777.31;5057918;28;45371;-66
2022/04/14 11:06:51;;;;;;;;;15.00;13.75;;;;;18.59;55.77;101733.22;5045561;28;45440;-66
2022/04/14 11:09:38;;;;;;;;;16.75;13.25;;;;;18.91;55.22;101774.91;5060079;28;45379;-66